Terminal Aerodrome Forecast
Issued by NWS Blacksburg, VA

Current Version | Previous Version | Graphics & Text | Print | Product List | Glossary On
Versions: 1 2 3 4 5 6 7 8 9 10 11 12 13 14 15 16 17 18 19 20 21 22 23 24 25 26 27 28 29 30 31 32 33
500
FTUS41 KRNK 240520
TAFBLF
TAF
KBLF 240520Z 2406/2506 21005KT P6SM BKN120
     FM241300 22005KT P6SM OVC080
      TEMPO 2413/2415 4SM -SHRA OVC040
     FM241800 21008KT P6SM VCSH BKN060
     FM242000 22008KT P6SM -SHRA BKN040
     FM250100 22006KT P6SM BKN040=

USA.gov is the U.S. government's official web portal to all federal, state and local government web resources and services.